sensor_id;sensor_type;location;lat;lon;timestamp;pressure;altitude;pressure_sealevel;temperature;humidity
21942;BME280;11135;54.192;15.670;2022-07-29T00:02:35;102051.59;;;19.77;54.11
21942;BME280;11135;54.192;15.670;2022-07-29T00:08:40;102042.13;;;19.67;54.49
21942;BME280;11135;54.192;15.670;2022-07-29T00:14:44;102043.72;;;19.57;54.95
21942;BME280;11135;54.192;15.670;2022-07-29T00:20:49;102052.59;;;19.62;55.03
21942;BME280;11135;54.192;15.670;2022-07-29T00:26:54;102056.34;;;19.61;55.18
21942;BME280;11135;54.192;15.670;2022-07-29T00:32:58;102055.94;;;19.67;54.81
21942;BME280;11135;54.192;15.670;2022-07-29T00:39:01;102064.78;;;19.86;54.35
21942;BME280;11135;54.192;15.670;2022-07-29T00:45:08;102056.22;;;19.48;55.44
21942;BME280;11135;54.192;15.670;2022-07-29T00:51:12;102051.22;;;19.55;55.52
21942;BME280;11135;54.192;15.670;2022-07-29T00:57:16;102044.88;;;19.39;55.90
21942;BME280;11135;54.192;15.670;2022-07-29T01:03:21;102053.19;;;19.24;55.80
21942;BME280;11135;54.192;15.670;2022-07-29T01:09:26;102041.63;;;19.32;56.00
21942;BME280;11135;54.192;15.670;2022-07-29T01:15:51;102043.03;;;19.39;55.70
21942;BME280;11135;54.192;15.670;2022-07-29T01:22:06;102054.06;;;19.25;56.46
21942;BME280;11135;54.192;15.670;2022-07-29T01:28:38;102050.31;;;19.26;56.51
21942;BME280;11135;54.192;15.670;2022-07-29T01:34:48;102045.84;;;19.09;56.73
21942;BME280;11135;54.192;15.670;2022-07-29T01:40:58;102046.47;;;19.14;57.05
21942;BME280;11135;54.192;15.670;2022-07-29T01:47:12;102042.41;;;19.20;56.76
21942;BME280;11135;54.192;15.670;2022-07-29T01:53:25;102045.56;;;19.28;56.41
21942;BME280;11135;54.192;15.670;2022-07-29T01:59:39;102052.97;;;19.13;56.67
21942;BME280;11135;54.192;15.670;2022-07-29T02:05:47;102037.66;;;18.93;57.30
21942;BME280;11135;54.192;15.670;2022-07-29T02:11:53;102032.75;;;18.98;57.23
21942;BME280;11135;54.192;15.670;2022-07-29T02:18:01;102032.16;;;18.93;57.61
21942;BME280;11135;54.192;15.670;2022-07-29T02:24:07;102030.34;;;18.78;58.22
21942;BME280;11135;54.192;15.670;2022-07-29T02:30:13;102026.31;;;18.84;57.85
21942;BME280;11135;54.192;15.670;2022-07-29T02:36:20;102032.34;;;18.90;57.79
21942;BME280;11135;54.192;15.670;2022-07-29T02:42:27;102035.41;;;19.00;57.50
21942;BME280;11135;54.192;15.670;2022-07-29T02:48:36;102038.53;;;18.94;57.50
21942;BME280;11135;54.192;15.670;2022-07-29T02:54:42;102032.91;;;18.81;57.75
21942;BME280;11135;54.192;15.670;2022-07-29T03:00:50;102033.22;;;18.91;57.99
21942;BME280;11135;54.192;15.670;2022-07-29T03:06:58;102043.56;;;18.73;58.32
21942;BME280;11135;54.192;15.670;2022-07-29T03:13:04;102030.25;;;18.80;58.31
21942;BME280;11135;54.192;15.670;2022-07-29T03:19:10;102028.81;;;18.88;57.92
21942;BME280;11135;54.192;15.670;2022-07-29T03:25:15;102022.59;;;18.99;57.50
21942;BME280;11135;54.192;15.670;2022-07-29T03:31:19;102023.09;;;19.20;57.48
21942;BME280;11135;54.192;15.670;2022-07-29T03:37:24;102030.91;;;19.13;58.26
21942;BME280;11135;54.192;15.670;2022-07-29T03:43:29;102025.16;;;19.16;58.21
21942;BME280;11135;54.192;15.670;2022-07-29T03:49:36;102021.22;;;19.34;57.82
21942;BME280;11135;54.192;15.670;2022-07-29T03:55:45;102021.31;;;19.19;58.89
21942;BME280;11135;54.192;15.670;2022-07-29T04:01:49;102025.38;;;19.27;58.73
21942;BME280;11135;54.192;15.670;2022-07-29T04:07:53;102015.91;;;19.31;58.92
21942;BME280;11135;54.192;15.670;2022-07-29T04:13:58;102015.78;;;19.33;59.00
21942;BME280;11135;54.192;15.670;2022-07-29T04:20:01;102015.09;;;19.44;58.96
21942;BME280;11135;54.192;15.670;2022-07-29T04:26:05;102009.09;;;19.51;59.15
21942;BME280;11135;54.192;15.670;2022-07-29T04:32:13;102017.25;;;19.53;59.29
21942;BME280;11135;54.192;15.670;2022-07-29T04:38:16;102012.72;;;19.52;59.17
21942;BME280;11135;54.192;15.670;2022-07-29T04:44:20;102014.63;;;19.65;59.26
21942;BME280;11135;54.192;15.670;2022-07-29T04:50:31;102015.94;;;19.87;59.08
21942;BME280;11135;54.192;15.670;2022-07-29T04:56:35;102007.84;;;19.84;59.43
21942;BME280;11135;54.192;15.670;2022-07-29T05:02:38;102010.88;;;19.93;59.51
21942;BME280;11135;54.192;15.670;2022-07-29T05:08:43;102011.22;;;19.89;59.59
21942;BME280;11135;54.192;15.670;2022-07-29T05:14:47;102023.34;;;19.86;60.18
21942;BME280;11135;54.192;15.670;2022-07-29T05:20:51;102012.75;;;19.93;60.66
21942;BME280;11135;54.192;15.670;2022-07-29T05:26:56;102021.66;;;19.98;60.14
21942;BME280;11135;54.192;15.670;2022-07-29T05:32:59;102020.75;;;19.98;60.59
21942;BME280;11135;54.192;15.670;2022-07-29T05:39:03;102018.78;;;20.00;60.82
21942;BME280;11135;54.192;15.670;2022-07-29T05:45:09;102025.97;;;20.02;60.99
21942;BME280;11135;54.192;15.670;2022-07-29T05:51:12;102035.63;;;20.09;60.64
21942;BME280;11135;54.192;15.670;2022-07-29T05:57:17;102036.75;;;20.19;60.55
21942;BME280;11135;54.192;15.670;2022-07-29T06:03:22;102039.34;;;20.08;61.25
21942;BME280;11135;54.192;15.670;2022-07-29T06:09:25;102048.19;;;20.28;60.67
21942;BME280;11135;54.192;15.670;2022-07-29T06:15:30;102037.59;;;20.34;60.29
21942;BME280;11135;54.192;15.670;2022-07-29T06:21:35;102038.66;;;20.32;60.91
21942;BME280;11135;54.192;15.670;2022-07-29T06:27:43;102033.84;;;20.35;60.44
21942;BME280;11135;54.192;15.670;2022-07-29T06:33:46;102039.44;;;20.48;60.00
21942;BME280;11135;54.192;15.670;2022-07-29T06:39:51;102028.94;;;20.53;59.77
21942;BME280;11135;54.192;15.670;2022-07-29T06:46:15;102025.84;;;20.58;59.46
21942;BME280;11135;54.192;15.670;2022-07-29T06:52:20;102027.81;;;20.56;60.31
21942;BME280;11135;54.192;15.670;2022-07-29T06:58:25;102029.06;;;20.64;59.18
21942;BME280;11135;54.192;15.670;2022-07-29T07:04:29;102031.28;;;20.59;59.92
21942;BME280;11135;54.192;15.670;2022-07-29T07:10:33;102026.56;;;20.74;58.70
21942;BME280;11135;54.192;15.670;2022-07-29T07:16:38;102020.31;;;20.70;59.11
21942;BME280;11135;54.192;15.670;2022-07-29T07:22:42;102017.25;;;20.75;59.78
21942;BME280;11135;54.192;15.670;2022-07-29T07:28:45;102018.69;;;20.80;58.76
21942;BME280;11135;54.192;15.670;2022-07-29T07:34:50;102013.28;;;20.92;58.48
21942;BME280;11135;54.192;15.670;2022-07-29T07:40:54;102015.38;;;20.88;58.66
21942;BME280;11135;54.192;15.670;2022-07-29T07:46:57;102007.44;;;20.96;58.29
21942;BME280;11135;54.192;15.670;2022-07-29T07:53:11;102011.28;;;21.06;57.42
21942;BME280;11135;54.192;15.670;2022-07-29T07:59:15;102008.31;;;21.09;57.92
21942;BME280;11135;54.192;15.670;2022-07-29T08:05:18;102006.97;;;21.15;56.95
21942;BME280;11135;54.192;15.670;2022-07-29T08:11:26;102005.06;;;21.16;57.50
21942;BME280;11135;54.192;15.670;2022-07-29T08:17:35;101992.69;;;21.21;57.58
21942;BME280;11135;54.192;15.670;2022-07-29T08:23:38;101999.00;;;21.23;57.02
21942;BME280;11135;54.192;15.670;2022-07-29T08:29:56;101999.78;;;21.25;56.48
21942;BME280;11135;54.192;15.670;2022-07-29T08:36:00;101998.56;;;21.29;56.97
21942;BME280;11135;54.192;15.670;2022-07-29T08:42:05;102000.00;;;21.35;56.91
21942;BME280;11135;54.192;15.670;2022-07-29T08:48:11;101994.34;;;21.36;56.75
21942;BME280;11135;54.192;15.670;2022-07-29T08:54:17;102002.19;;;21.43;57.10
21942;BME280;11135;54.192;15.670;2022-07-29T09:00:22;101992.75;;;21.45;57.05
21942;BME280;11135;54.192;15.670;2022-07-29T09:06:31;101991.56;;;21.49;57.05
21942;BME280;11135;54.192;15.670;2022-07-29T09:12:36;101992.31;;;21.51;56.99
21942;BME280;11135;54.192;15.670;2022-07-29T09:18:41;101991.19;;;21.54;56.71
21942;BME280;11135;54.192;15.670;2022-07-29T09:24:47;101991.84;;;21.57;56.26
21942;BME280;11135;54.192;15.670;2022-07-29T09:30:51;101984.41;;;21.58;56.20
21942;BME280;11135;54.192;15.670;2022-07-29T09:36:56;101992.41;;;21.62;56.08
21942;BME280;11135;54.192;15.670;2022-07-29T09:43:09;101993.94;;;21.66;56.11
21942;BME280;11135;54.192;15.670;2022-07-29T09:49:13;101985.38;;;21.69;56.29
21942;BME280;11135;54.192;15.670;2022-07-29T09:55:20;101974.09;;;21.73;57.97
21942;BME280;11135;54.192;15.670;2022-07-29T10:01:28;101968.44;;;21.74;58.49
21942;BME280;11135;54.192;15.670;2022-07-29T10:07:46;101960.38;;;21.71;58.78
21942;BME280;11135;54.192;15.670;2022-07-29T10:13:55;101965.31;;;21.79;59.29
21942;BME280;11135;54.192;15.670;2022-07-29T10:20:00;101964.19;;;21.81;60.32
21942;BME280;11135;54.192;15.670;2022-07-29T10:26:04;101975.63;;;21.77;58.84
21942;BME280;11135;54.192;15.670;2022-07-29T10:38:48;101959.88;;;21.77;59.84
21942;BME280;11135;54.192;15.670;2022-07-29T10:44:56;101965.06;;;21.82;59.95
21942;BME280;11135;54.192;15.670;2022-07-29T10:51:02;101956.75;;;21.82;59.13
21942;BME280;11135;54.192;15.670;2022-07-29T10:57:17;101964.19;;;21.81;60.03
21942;BME280;11135;54.192;15.670;2022-07-29T11:03:44;101952.50;;;21.89;60.07
21942;BME280;11135;54.192;15.670;2022-07-29T11:10:22;101951.94;;;21.96;59.70
21942;BME280;11135;54.192;15.670;2022-07-29T11:17:02;101949.94;;;21.98;59.70
21942;BME280;11135;54.192;15.670;2022-07-29T11:23:23;101950.69;;;22.01;60.30
21942;BME280;11135;54.192;15.670;2022-07-29T11:29:27;101949.34;;;22.06;60.38
21942;BME280;11135;54.192;15.670;2022-07-29T11:35:33;101947.25;;;22.10;59.81
21942;BME280;11135;54.192;15.670;2022-07-29T11:41:40;101945.09;;;22.13;59.55
21942;BME280;11135;54.192;15.670;2022-07-29T11:47:50;101942.22;;;22.15;59.45
21942;BME280;11135;54.192;15.670;2022-07-29T11:53:57;101940.06;;;22.18;60.63
21942;BME280;11135;54.192;15.670;2022-07-29T12:00:08;101933.31;;;22.22;60.30
21942;BME280;11135;54.192;15.670;2022-07-29T12:06:15;101942.50;;;22.23;60.94
21942;BME280;11135;54.192;15.670;2022-07-29T12:12:23;101934.22;;;22.34;60.92
21942;BME280;11135;54.192;15.670;2022-07-29T12:18:27;101932.09;;;22.38;59.61
21942;BME280;11135;54.192;15.670;2022-07-29T12:24:42;101930.94;;;22.40;59.18
21942;BME280;11135;54.192;15.670;2022-07-29T12:30:50;101924.56;;;22.51;58.33
21942;BME280;11135;54.192;15.670;2022-07-29T12:36:54;101917.50;;;22.58;58.41
21942;BME280;11135;54.192;15.670;2022-07-29T12:43:08;101919.53;;;22.67;58.21
21942;BME280;11135;54.192;15.670;2022-07-29T12:49:22;101917.03;;;22.75;57.56
21942;BME280;11135;54.192;15.670;2022-07-29T12:55:39;101921.75;;;22.86;58.34
21942;BME280;11135;54.192;15.670;2022-07-29T13:01:43;101915.06;;;22.89;58.10
21942;BME280;11135;54.192;15.670;2022-07-29T13:07:50;101915.94;;;23.00;57.39
21942;BME280;11135;54.192;15.670;2022-07-29T13:13:58;101915.06;;;23.00;57.25
21942;BME280;11135;54.192;15.670;2022-07-29T13:20:11;101914.56;;;22.95;57.66
21942;BME280;11135;54.192;15.670;2022-07-29T13:26:17;101913.44;;;22.97;58.19
21942;BME280;11135;54.192;15.670;2022-07-29T13:32:21;101910.53;;;22.99;57.77
21942;BME280;11135;54.192;15.670;2022-07-29T13:38:30;101914.44;;;23.07;58.03
21942;BME280;11135;54.192;15.670;2022-07-29T13:44:35;101902.66;;;23.15;57.39
21942;BME280;11135;54.192;15.670;2022-07-29T13:50:38;101897.66;;;23.09;57.77
21942;BME280;11135;54.192;15.670;2022-07-29T13:56:42;101906.84;;;23.21;57.54
21942;BME280;11135;54.192;15.670;2022-07-29T14:02:48;101892.41;;;23.38;57.15
21942;BME280;11135;54.192;15.670;2022-07-29T14:08:52;101887.47;;;23.41;56.56
21942;BME280;11135;54.192;15.670;2022-07-29T14:14:56;101894.47;;;23.25;57.00
21942;BME280;11135;54.192;15.670;2022-07-29T14:21:00;101886.16;;;23.13;57.53
21942;BME280;11135;54.192;15.670;2022-07-29T14:27:04;101882.75;;;23.10;58.06
21942;BME280;11135;54.192;15.670;2022-07-29T14:33:08;101876.69;;;23.05;57.90
21942;BME280;11135;54.192;15.670;2022-07-29T14:39:13;101876.81;;;23.03;58.36
21942;BME280;11135;54.192;15.670;2022-07-29T14:45:17;101879.19;;;23.19;57.82
21942;BME280;11135;54.192;15.670;2022-07-29T14:51:21;101868.03;;;23.41;56.88
21942;BME280;11135;54.192;15.670;2022-07-29T14:57:34;101863.72;;;23.49;57.55
21942;BME280;11135;54.192;15.670;2022-07-29T15:03:38;101863.13;;;23.45;56.81
21942;BME280;11135;54.192;15.670;2022-07-29T15:09:42;101860.22;;;23.47;56.80
21942;BME280;11135;54.192;15.670;2022-07-29T15:15:52;101867.66;;;23.46;57.19
21942;BME280;11135;54.192;15.670;2022-07-29T15:22:01;101870.56;;;23.44;57.11
21942;BME280;11135;54.192;15.670;2022-07-29T15:28:07;101871.97;;;23.39;56.96
21942;BME280;11135;54.192;15.670;2022-07-29T15:34:12;101870.06;;;23.39;57.20
21942;BME280;11135;54.192;15.670;2022-07-29T15:40:15;101869.72;;;23.33;58.07
21942;BME280;11135;54.192;15.670;2022-07-29T15:46:19;101857.22;;;23.27;57.59
21942;BME280;11135;54.192;15.670;2022-07-29T15:52:42;101856.72;;;23.33;57.29
21942;BME280;11135;54.192;15.670;2022-07-29T15:58:46;101853.03;;;23.44;56.83
21942;BME280;11135;54.192;15.670;2022-07-29T16:04:49;101840.19;;;23.32;57.07
21942;BME280;11135;54.192;15.670;2022-07-29T16:10:55;101843.59;;;23.24;57.19
21942;BME280;11135;54.192;15.670;2022-07-29T16:16:58;101838.88;;;23.36;57.20
21942;BME280;11135;54.192;15.670;2022-07-29T16:23:05;101843.44;;;23.37;56.78
21942;BME280;11135;54.192;15.670;2022-07-29T16:29:11;101836.28;;;23.23;56.72
21942;BME280;11135;54.192;15.670;2022-07-29T16:35:16;101833.63;;;23.22;56.43
21942;BME280;11135;54.192;15.670;2022-07-29T16:41:20;101834.84;;;23.29;56.44
21942;BME280;11135;54.192;15.670;2022-07-29T16:47:25;101828.47;;;23.06;56.85
21942;BME280;11135;54.192;15.670;2022-07-29T16:53:28;101826.56;;;23.06;56.59
21942;BME280;11135;54.192;15.670;2022-07-29T16:59:32;101823.03;;;23.04;56.89
21942;BME280;11135;54.192;15.670;2022-07-29T17:05:46;101824.44;;;23.10;56.95
21942;BME280;11135;54.192;15.670;2022-07-29T17:11:55;101825.66;;;23.17;56.84
21942;BME280;11135;54.192;15.670;2022-07-29T17:18:00;101824.91;;;23.15;57.26
21942;BME280;11135;54.192;15.670;2022-07-29T17:24:15;101821.38;;;23.24;57.47
21942;BME280;11135;54.192;15.670;2022-07-29T17:30:18;101817.44;;;23.27;57.56
21942;BME280;11135;54.192;15.670;2022-07-29T17:36:22;101818.31;;;23.27;58.31
21942;BME280;11135;54.192;15.670;2022-07-29T17:42:27;101804.66;;;23.35;58.02
21942;BME280;11135;54.192;15.670;2022-07-29T17:48:30;101810.72;;;23.29;58.57
21942;BME280;11135;54.192;15.670;2022-07-29T17:54:34;101808.19;;;23.37;58.23
21942;BME280;11135;54.192;15.670;2022-07-29T18:00:39;101795.47;;;23.35;59.04
21942;BME280;11135;54.192;15.670;2022-07-29T18:06:43;101804.53;;;23.37;58.78
21942;BME280;11135;54.192;15.670;2022-07-29T18:12:46;101793.16;;;23.40;58.93
21942;BME280;11135;54.192;15.670;2022-07-29T18:18:51;101788.63;;;23.39;59.02
21942;BME280;11135;54.192;15.670;2022-07-29T18:24:55;101790.97;;;23.43;58.69
21942;BME280;11135;54.192;15.670;2022-07-29T18:30:59;101792.09;;;23.52;58.97
21942;BME280;11135;54.192;15.670;2022-07-29T18:37:05;101786.53;;;23.52;59.30
21942;BME280;11135;54.192;15.670;2022-07-29T18:43:08;101784.31;;;23.46;59.00
21942;BME280;11135;54.192;15.670;2022-07-29T18:49:13;101794.16;;;23.39;59.25
21942;BME280;11135;54.192;15.670;2022-07-29T18:55:18;101794.59;;;23.55;58.21
21942;BME280;11135;54.192;15.670;2022-07-29T19:01:22;101798.53;;;23.64;57.95
21942;BME280;11135;54.192;15.670;2022-07-29T19:07:33;101808.91;;;23.62;57.64
21942;BME280;11135;54.192;15.670;2022-07-29T19:13:38;101805.13;;;24.05;56.74
21942;BME280;11135;54.192;15.670;2022-07-29T19:19:42;101817.88;;;24.28;55.60
21942;BME280;11135;54.192;15.670;2022-07-29T19:25:46;101820.44;;;24.31;54.94
21942;BME280;11135;54.192;15.670;2022-07-29T19:31:56;101831.56;;;24.31;55.27
21942;BME280;11135;54.192;15.670;2022-07-29T19:38:02;101832.28;;;24.12;55.14
21942;BME280;11135;54.192;15.670;2022-07-29T19:44:08;101832.19;;;24.02;55.34
21942;BME280;11135;54.192;15.670;2022-07-29T19:50:14;101838.09;;;24.09;55.52
21942;BME280;11135;54.192;15.670;2022-07-29T19:56:18;101836.09;;;23.79;55.05
21942;BME280;11135;54.192;15.670;2022-07-29T20:02:22;101841.84;;;23.66;54.85
21942;BME280;11135;54.192;15.670;2022-07-29T20:08:27;101839.59;;;23.60;53.61
21942;BME280;11135;54.192;15.670;2022-07-29T20:14:30;101844.28;;;23.60;53.08
21942;BME280;11135;54.192;15.670;2022-07-29T20:20:35;101842.16;;;23.41;53.62
21942;BME280;11135;54.192;15.670;2022-07-29T20:26:40;101837.75;;;23.38;53.34
21942;BME280;11135;54.192;15.670;2022-07-29T20:32:45;101833.00;;;23.72;53.29
21942;BME280;11135;54.192;15.670;2022-07-29T20:38:52;101833.53;;;23.87;54.18
21942;BME280;11135;54.192;15.670;2022-07-29T20:45:03;101824.88;;;24.01;54.11
21942;BME280;11135;54.192;15.670;2022-07-29T20:51:11;101829.28;;;24.04;54.10
21942;BME280;11135;54.192;15.670;2022-07-29T20:57:18;101835.06;;;24.12;53.73
21942;BME280;11135;54.192;15.670;2022-07-29T21:03:42;101831.09;;;24.15;53.72
21942;BME280;11135;54.192;15.670;2022-07-29T21:09:46;101834.38;;;24.20;52.93
21942;BME280;11135;54.192;15.670;2022-07-29T21:15:49;101832.63;;;24.19;52.72
21942;BME280;11135;54.192;15.670;2022-07-29T21:21:59;101829.69;;;24.20;52.51
21942;BME280;11135;54.192;15.670;2022-07-29T21:28:03;101834.84;;;24.25;52.22
21942;BME280;11135;54.192;15.670;2022-07-29T21:34:24;101841.44;;;24.24;51.97
21942;BME280;11135;54.192;15.670;2022-07-29T21:40:30;101844.94;;;24.26;51.62
21942;BME280;11135;54.192;15.670;2022-07-29T21:46:34;101837.47;;;24.06;51.82
21942;BME280;11135;54.192;15.670;2022-07-29T21:52:37;101833.00;;;23.93;52.41
21942;BME280;11135;54.192;15.670;2022-07-29T21:58:42;101831.03;;;23.84;52.16
21942;BME280;11135;54.192;15.670;2022-07-29T22:04:46;101818.41;;;23.80;52.08
21942;BME280;11135;54.192;15.670;2022-07-29T22:10:50;101838.13;;;23.77;52.43
21942;BME280;11135;54.192;15.670;2022-07-29T22:16:55;101833.00;;;23.72;52.09
21942;BME280;11135;54.192;15.670;2022-07-29T22:22:59;101837.81;;;23.70;52.13
21942;BME280;11135;54.192;15.670;2022-07-29T22:29:03;101836.78;;;23.71;51.94
21942;BME280;11135;54.192;15.670;2022-07-29T22:35:08;101830.34;;;23.71;51.84
21942;BME280;11135;54.192;15.670;2022-07-29T22:41:12;101821.50;;;23.66;51.71
21942;BME280;11135;54.192;15.670;2022-07-29T22:47:16;101826.31;;;23.64;51.71
21942;BME280;11135;54.192;15.670;2022-07-29T22:53:41;101832.00;;;23.62;51.58
21942;BME280;11135;54.192;15.670;2022-07-29T22:59:45;101827.59;;;23.60;51.30
21942;BME280;11135;54.192;15.670;2022-07-29T23:05:48;101821.50;;;23.55;51.20
21942;BME280;11135;54.192;15.670;2022-07-29T23:11:54;101815.22;;;23.53;51.33
21942;BME280;11135;54.192;15.670;2022-07-29T23:17:58;101811.81;;;23.49;51.51
21942;BME280;11135;54.192;15.670;2022-07-29T23:24:02;101816.50;;;23.49;51.20
21942;BME280;11135;54.192;15.670;2022-07-29T23:30:08;101816.63;;;23.47;51.23
21942;BME280;11135;54.192;15.670;2022-07-29T23:36:12;101821.81;;;23.40;51.31
21942;BME280;11135;54.192;15.670;2022-07-29T23:42:15;101809.81;;;23.40;51.11
21942;BME280;11135;54.192;15.670;2022-07-29T23:48:20;101808.47;;;23.34;51.42
21942;BME280;11135;54.192;15.670;2022-07-29T23:54:24;101800.13;;;23.34;51.05
